This is the latest recevied weather packets stored in our database for station/object W7TRD. If no packets are shown the sender has not sent any weather packets the latest 10 day(s).
| Time | Temp. | Humidity | Pressure | Rain* | Wind** | Luminosity | Snow |
|---|---|---|---|---|---|---|---|
| 1787952466 | 22.22° C | 53% | 1018 hPa | 0 mm | - | 681 W/m² | - |
| 1787952163 | 22.22° C | 55% | 1018.1 hPa | 0 mm | - | 687 W/m² | - |
| 1787951861 | 22.78° C | 54% | 1018.2 hPa | 0 mm | - | 694 W/m² | - |
| 1787951557 | 23.33° C | 52% | 1018.1 hPa | 0 mm | - | 703 W/m² | - |
| 1787951253 | 22.22° C | 54% | 1018.2 hPa | 0 mm | - | 706 W/m² | - |
| 1787950949 | 22.22° C | 55% | 1018.3 hPa | 0 mm | - | 705 W/m² | - |
| 1787950644 | 22.22° C | 55% | 1018.4 hPa | 0 mm | - | 716 W/m² | - |
| 1787950341 | 22.78° C | 55% | 1018.3 hPa | 0 mm | - | 712 W/m² | - |
| 1787950036 | 21.67° C | 57% | 1018.4 hPa | 0 mm | - | 724 W/m² | - |
| 1787949732 | 21.67° C | 60% | 1018.4 hPa | 0 mm | - | 707 W/m² | - |
| 1787949431 | 21.67° C | 58% | 1018.3 hPa | 0 mm | - | 784 W/m² | - |
| 1787949126 | 22.78° C | 57% | 1018.2 hPa | 0 mm | - | 337 W/m² | - |
| 1787948823 | 22.22° C | 56% | 1018.5 hPa | 0 mm | - | 772 W/m² | - |
| 1787948522 | 22.22° C | 58% | 1018.3 hPa | 0 mm | - | 747 W/m² | - |
| 1787948217 | 21.67° C | 57% | 1018.7 hPa | 0 mm | - | 292 W/m² | - |
| 1787947915 | 21.67° C | 58% | 1018.6 hPa | 0 mm | - | 849 W/m² | - |
| 1787947611 | 22.22° C | 57% | 1018.7 hPa | 0 mm | - | 816 W/m² | - |
| 1787947310 | 21.67° C | 60% | 1018.8 hPa | 0 mm | - | 757 W/m² | - |
| 1787947004 | 21.67° C | 58% | 1018.8 hPa | 0 mm | - | 806 W/m² | - |
| 1787946703 | 21.67° C | 58% | 1018.8 hPa | 0 mm | - | 171 W/m² | - |
| 1787946397 | 21.67° C | 59% | 1018.7 hPa | 0 mm | - | 790 W/m² | - |
| 1787946097 | 21.67° C | 58% | 1018.7 hPa | 0 mm | - | 789 W/m² | - |
| 1787945793 | 21.11° C | 59% | 1018.8 hPa | 0 mm | - | 286 W/m² | - |
| 1787945493 | 21.11° C | 59% | 1018.9 hPa | 0 mm | - | 803 W/m² | - |
| 1787945188 | 20.56° C | 60% | 1019.1 hPa | 0 mm | - | 312 W/m² | - |
* Rain latest hour (hover to see other rain measurements)
** Current wind speed in m/s (hover to see current wind gust speed)